Saint Joseph, MO

3:47 AM CDT on August 21, 2014 (GMT -0500)
Clay County Regional | Change Station
CLOSE
Current Station
Airport
Location: Mosby,
Elevation: 774 ft
Nearby Weather Stations
Active Advisory: Heat Advisory

Elev 774 ft 39.33 °N, 94.31 °W | Updated 32 minutes ago

Scattered Clouds
Scattered Clouds
77 °F
Feels Like 77 °F
N
5
Wind Variable Wind from SSE

Today
High -- | Low -- °F
--% Chance of Precip.
Yesterday
High -- | Low -- °F
Precip. -- in
6:37 AM 8:07 PM
Waning Crescent, 15% visible
Pressure 29.89 in
Visibility 10.0 miles
Clouds Scattered Clouds 8500 ft
Dew Point 66 °F
Humidity 69%
Rainfall 0.00 in
Snow Depth Not available.
UV 0 out of 12
Pollen 10.00 out of 12
Air Quality Not available.
Flu Activity Not available.
METAR KGPH 210815Z AUTO 15004KT 10SM SCT085 25/19 A2989 RMK AO2 LTG DSNT N

More Conditions Fewer Conditions

Pressure 29.89 in
Visibility 10.0 miles
Clouds Scattered Clouds 8500 ft
Dew Point 66 °F
Humidity 69%
Rainfall 0.00 in
Snow Depth Not available.
UV 0 out of 12
Pollen 10.00 out of 12
Air Quality Not available.
Flu Activity Not available.
METAR KGPH 210815Z AUTO 15004KT 10SM SCT085 25/19 A2989 RMK AO2 LTG DSNT N

More Conditions Fewer Conditions

10-Day Weather Forecast

Almanac

Astronomy

Aug. 21, 2014 Rise Set
Actual Time 6:37 AM CDT 8:07 PM CDT
Civil Twilight 6:08 AM CDT 8:35 PM CDT
Nautical Twilight 5:34 AM CDT 9:09 PM CDT
Astronomical Twilight 4:58 AM CDT 9:45 PM CDT
Moon 3:08 AM CDT 5:36 PM CDT
Length of Visible Light 14h 26m
Length of Day
13h 30m
Tomorrow will be 2m 24s shorter.
Waning Crescent, 15% of the Moon is Illuminated
Today
Waning Crescent
Aug 25
New
Sep 2
First Quarter
Sep 8
Full
Sep 15
Last Quarter

Today's Extremes

State Highs State Lows

Community

WunderPhotos

Upload Photos

1,745,866 photos uploaded!

Nearby

Snow Depth

Station Depth Elevation
No new snow has been reported.

Earthquake Activity

City Distance Mag. Time & Date
No recent earthquake activity has been reported nearby.
Minimum magnitude displayed is 2.5.

Coastal Water Temperatures

Place Temperature
No Stations Reporting

Nearby Weather Stations